Lanai Airport Lanai City US
ICAO: PHNY
IATA:
Category: Medium
Scheduled Services:

Elevation: 1308 ft
TransAlt. 0 ft.

Airport Communications:
ASOS:118.375
HONOLULU CNTR:119.3
CTAF:122.9
RDO:117.7

PHNY Zoom In..

Runways:

(A) RW 03 length 5001 ft width 150 ft
ILS 111.10 / hdg 33

(B) RW 21 length 5001 ft width 150 ft
---- / hdg 213

Location; PHNY
Day. 30 / Time. 21.56 Zulu
* Altimeter: 30.17
* Temperature: 26° c. 78.8°f.
* Wind from: 040° Speed 15 kn with Gusts up to 22 kn.
Dewpoint: 19° c.
Visibility: 10 Statute Miles.
Clouds: Clear (automated report).

PHNY 302156Z AUTO 04015G22KT 10SM CLR 26/19 A3017 RMK AO2 SLP194 T02610194


Wind From 040°
Speed 15 kn.

 
 
jpsmedia worldairports.se 2020   terms of use